Time;durP1;ratioP1;P1;durP2;ratioP2;P2;SDS_P1;SDS_P2;PMS_P1;PMS_P2;Temp;Humidity;BMP_temperature;BMP_pressure;BME280_temperature;BME280_humidity;BME280_pressure;Samples;Min_cycle;Max_cycle;Signal;HPM_P1;HPM_P2
2023/11/26 00:14:39;;;;;;;8.13;4.57;;;;;;;0.93;74.52;99062.03;30596291;28;97141;-63
2023/11/26 00:29:43;;;;;;;6.90;3.88;;;;;;;0.89;74.65;99086.88;30595908;28;97409;-63
2023/11/26 00:44:43;;;;;;;10.30;6.30;;;;;;;0.82;75.06;99104.09;30594608;28;96732;-62
2023/11/26 00:59:43;;;;;;;9.20;5.75;;;;;;;0.84;75.09;99121.34;30593690;28;103147;-61
2023/11/26 01:14:44;;;;;;;9.25;6.72;;;;;;;0.76;75.21;99117.75;30593598;28;107228;-63
2023/11/26 01:29:44;;;;;;;13.10;7.25;;;;;;;0.80;75.14;99132.25;30598429;28;108075;-62
2023/11/26 01:44:44;;;;;;;10.77;5.15;;;;;;;0.66;75.00;99157.84;30611351;28;97320;-61
2023/11/26 01:59:45;;;;;;;11.68;5.90;;;;;;;0.58;75.15;99170.78;30609190;28;99602;-62
2023/11/26 02:14:49;;;;;;;8.15;4.32;;;;;;;0.61;74.95;99185.44;30608391;28;97976;-61
2023/11/26 02:29:49;;;;;;;5.73;3.87;;;;;;;0.47;74.87;99184.81;30608314;28;96659;-61
2023/11/26 02:44:50;;;;;;;5.85;4.53;;;;;;;0.37;75.10;99209.28;30606001;28;97399;-61
2023/11/26 02:59:50;;;;;;;6.15;4.13;;;;;;;0.23;75.11;99213.06;30604488;28;97096;-61
2023/11/26 03:14:53;;;;;;;7.45;4.90;;;;;;;0.28;75.10;99235.28;30602449;28;105176;-62
2023/11/26 03:29:53;;;;;;;9.07;5.22;;;;;;;0.31;75.16;99242.91;30602485;28;97846;-61
2023/11/26 03:44:55;;;;;;;5.68;3.80;;;;;;;0.35;74.67;99267.06;30599955;28;108359;-61
2023/11/26 03:59:55;;;;;;;6.93;4.25;;;;;;;0.36;74.72;99279.22;30596771;28;97447;-61
2023/11/26 04:14:59;;;;;;;5.80;3.50;;;;;;;0.23;75.08;99308.19;30599151;28;97348;-61
2023/11/26 04:30:01;;;;;;;5.65;3.35;;;;;;;0.08;74.94;99326.00;30598115;28;97126;-61
2023/11/26 04:45:02;;;;;;;5.90;2.83;;;;;;;0.06;75.41;99332.31;30593066;28;96740;-61
2023/11/26 05:00:03;;;;;;;4.20;2.53;;;;;;;-0.05;75.12;99373.28;30591754;28;97278;-60
2023/11/26 05:15:04;;;;;;;6.68;2.20;;;;;;;-0.05;75.05;99386.38;30612433;28;97060;-61
2023/11/26 05:30:06;;;;;;;5.25;1.70;;;;;;;-0.29;74.99;99407.47;30610384;28;96754;-61
2023/11/26 05:45:07;;;;;;;4.63;2.40;;;;;;;-0.58;75.24;99422.81;30609755;28;97758;-61
2023/11/26 06:00:08;;;;;;;2.55;1.58;;;;;;;-0.78;75.31;99435.63;30607874;28;96998;-61
2023/11/26 06:15:09;;;;;;;5.47;2.40;;;;;;;-0.92;75.17;99451.53;30605306;28;98435;-61
2023/11/26 06:30:10;;;;;;;3.28;2.00;;;;;;;-1.00;75.50;99473.00;30603626;28;96972;-61
2023/11/26 06:45:10;;;;;;;6.25;2.60;;;;;;;-0.75;75.66;99489.47;30602925;28;97055;-62
2023/11/26 07:00:11;;;;;;;4.43;2.80;;;;;;;-0.52;75.44;99517.38;30600526;28;97164;-61
2023/11/26 07:15:11;;;;;;;5.95;3.10;;;;;;;-0.36;75.30;99527.50;30600092;28;97080;-61
2023/11/26 07:30:14;;;;;;;7.25;2.97;;;;;;;-0.19;74.77;99562.06;30597360;28;96993;-61
2023/11/26 07:45:14;;;;;;;3.45;2.15;;;;;;;-0.15;74.38;99584.44;30597477;28;96701;-61
2023/11/26 08:00:17;;;;;;;4.72;2.65;;;;;;;0.17;73.80;99589.81;30594226;28;96847;-61
2023/11/26 08:15:19;;;;;;;4.97;2.78;;;;;;;0.42;73.46;99610.66;30592088;28;96994;-60
2023/11/26 08:30:32;;;;;;;7.70;3.40;;;;;;;0.54;72.33;99622.00;30592103;28;96721;-60
2023/11/26 08:45:32;;;;;;;4.53;2.58;;;;;;;1.60;71.56;99642.38;30607936;28;96962;-61
2023/11/26 09:00:32;;;;;;;6.80;3.13;;;;;;;1.44;70.91;99662.97;30612912;28;96984;-61
2023/11/26 09:15:36;;;;;;;3.50;2.17;;;;;;;6.39;66.67;99667.25;30610955;28;114829;-61
2023/11/26 09:30:36;;;;;;;4.40;1.47;;;;;;;16.95;54.35;99662.16;30609893;28;97200;-62
2023/11/26 09:45:37;;;;;;;3.88;1.83;;;;;;;18.09;48.78;99659.53;30606948;28;97627;-62
2023/11/26 10:00:38;;;;;;;2.75;1.48;;;;;;;11.22;47.80;99680.28;30605784;28;97632;-63
2023/11/26 10:15:40;;;;;;;2.65;1.42;;;;;;;10.83;51.65;99667.09;30604648;28;96802;-63
2023/11/26 10:30:41;;;;;;;3.17;1.80;;;;;;;13.26;45.79;99660.91;30604348;28;97033;-62
2023/11/26 10:45:44;;;;;;;1.95;1.58;;;;;;;10.99;47.16;99655.41;30603404;28;97760;-61
2023/11/26 11:00:51;;;;;;;3.73;1.43;;;;;;;13.94;42.91;99635.09;30602669;28;97095;-63
2023/11/26 11:15:52;;;;;;;3.33;1.10;;;;;;;22.08;31.44;99638.56;30600235;28;97230;-62
2023/11/26 11:30:53;;;;;;;3.57;1.53;;;;;;;19.20;29.56;99657.91;30599507;28;96801;-61
2023/11/26 11:45:54;;;;;;;4.00;1.77;;;;;;;11.80;34.99;99669.63;30596585;28;97372;-61
2023/11/26 12:00:57;;;;;;;5.57;2.97;;;;;;;6.71;40.56;99679.03;30595488;28;97216;-62
2023/11/26 12:15:57;;;;;;;4.87;2.00;;;;;;;5.05;42.92;99678.59;30592975;28;97081;-61
2023/11/26 12:31:01;;;;;;;4.57;2.58;;;;;;;3.30;46.23;99691.09;30595436;28;97407;-61
2023/11/26 12:46:09;;;;;;;6.00;2.47;;;;;;;2.30;48.64;99699.69;30592139;28;97025;-61
2023/11/26 13:01:23;;;;;;;5.83;2.43;;;;;;;11.65;38.17;99701.69;30589620;28;97809;-60
2023/11/26 13:16:23;;;;;;;4.03;2.20;;;;;;;4.46;45.01;99706.19;30588741;28;96836;-61
2023/11/26 13:31:23;;;;;;;4.38;1.73;;;;;;;2.86;47.35;99711.59;30603131;28;97128;-63
2023/11/26 13:46:24;;;;;;;15.57;7.18;;;;;;;2.01;49.39;99713.47;30608278;28;97465;-62
2023/11/26 14:01:25;;;;;;;5.15;1.90;;;;;;;2.02;49.79;99718.59;30608330;28;96823;-62
2023/11/26 14:16:25;;;;;;;6.97;3.40;;;;;;;1.54;50.19;99719.00;30606325;28;97072;-63
2023/11/26 14:31:25;;;;;;;4.15;2.17;;;;;;;0.76;51.19;99731.25;30604634;28;96788;-62
2023/11/26 14:46:25;;;;;;;3.83;1.92;;;;;;;0.28;51.97;99719.16;30602986;28;106420;-61
2023/11/26 15:01:26;;;;;;;4.75;1.80;;;;;;;-0.35;51.87;99730.69;30601115;28;97177;-61
2023/11/26 15:16:26;;;;;;;3.85;2.17;;;;;;;-0.94;52.37;99722.75;30599663;28;97104;-61
2023/11/26 15:31:27;;;;;;;4.07;2.33;;;;;;;-1.33;52.94;99724.56;30613227;28;114539;-62
2023/11/26 15:46:27;;;;;;;4.95;2.00;;;;;;;-1.26;53.25;99712.75;30596663;28;97562;-61
2023/11/26 16:01:28;;;;;;;4.38;2.38;;;;;;;-1.04;53.56;99723.41;30597007;28;97285;-61
2023/11/26 16:16:28;;;;;;;11.50;2.97;;;;;;;-1.28;53.81;99735.56;30593317;28;97194;-63
2023/11/26 16:31:29;;;;;;;10.10;4.50;;;;;;;-1.39;54.00;99737.13;30592545;28;97146;-63
2023/11/26 16:46:30;;;;;;;14.63;6.95;;;;;;;-1.82;54.96;99736.56;30591097;28;97086;-62
2023/11/26 17:01:30;;;;;;;10.20;5.45;;;;;;;-2.06;56.71;99753.72;30598010;28;96717;-61
2023/11/26 17:16:30;;;;;;;8.80;4.93;;;;;;;-1.95;58.01;99749.59;30610251;28;114797;-63
2023/11/26 17:31:31;;;;;;;11.63;6.82;;;;;;;-1.94;59.51;99736.44;30607681;28;115280;-61
2023/11/26 17:46:31;;;;;;;16.70;6.97;;;;;;;-2.26;59.88;99735.94;30606175;28;98122;-62
2023/11/26 18:01:31;;;;;;;14.02;6.40;;;;;;;-2.48;61.57;99745.13;30581919;28;97993;-64
2023/11/26 18:16:32;;;;;;;14.55;7.32;;;;;;;-2.62;62.52;99742.56;30570130;28;105567;-63
2023/11/26 18:31:39;;;;;;;16.52;7.85;;;;;;;-2.67;63.64;99747.25;30590960;28;97673;-65
2023/11/26 18:46:39;;;;;;;14.75;7.53;;;;;;;-2.72;63.75;99745.75;30593775;28;97039;-65
2023/11/26 19:01:39;;;;;;;16.13;8.93;;;;;;;-2.56;65.29;99734.34;30599670;28;96759;-65
2023/11/26 19:16:40;;;;;;;14.45;6.80;;;;;;;-2.19;64.72;99725.94;30592597;28;96884;-64
2023/11/26 19:31:40;;;;;;;15.00;8.60;;;;;;;-1.92;65.44;99729.31;30594929;28;96753;-61
2023/11/26 19:46:40;;;;;;;12.52;5.75;;;;;;;-1.71;65.76;99724.47;30505942;28;96671;-65
2023/11/26 20:01:41;;;;;;;14.30;7.15;;;;;;;-1.51;65.44;99724.88;30561514;28;96909;-63
2023/11/26 20:16:43;;;;;;;14.82;7.72;;;;;;;-1.36;65.50;99723.00;30585379;28;98455;-59
2023/11/26 20:31:46;;;;;;;17.98;7.38;;;;;;;-1.20;66.09;99717.56;30560065;28;97500;-61
2023/11/26 20:46:46;;;;;;;15.85;9.07;;;;;;;-1.19;65.69;99687.84;30590972;28;97247;-67
2023/11/26 21:01:47;;;;;;;13.73;6.55;;;;;;;-1.29;66.38;99681.59;30575510;28;97132;-70
2023/11/26 21:16:47;;;;;;;10.63;6.15;;;;;;;-1.34;66.38;99660.19;30547855;28;97302;-68
2023/11/26 21:31:48;;;;;;;13.73;6.57;;;;;;;-1.17;66.40;99645.94;30580569;28;98736;-66
2023/11/26 21:46:48;;;;;;;12.13;5.80;;;;;;;-1.29;66.59;99638.00;30578276;28;96895;-66
2023/11/26 22:01:49;;;;;;;14.05;6.97;;;;;;;-1.15;66.87;99646.66;30607388;28;96760;-67
2023/11/26 22:16:49;;;;;;;14.02;6.80;;;;;;;-0.98;67.25;99643.69;30602292;28;104808;-67
2023/11/26 22:31:49;;;;;;;11.23;5.70;;;;;;;-0.89;66.99;99631.72;30604284;28;103873;-67
2023/11/26 22:46:50;;;;;;;9.95;5.80;;;;;;;-0.88;66.63;99636.84;30604569;28;113395;-67
2023/11/26 23:01:50;;;;;;;10.35;5.82;;;;;;;-0.77;66.75;99624.78;30604556;28;96981;-67
2023/11/26 23:16:51;;;;;;;12.18;5.65;;;;;;;-0.67;66.72;99623.13;30603833;28;96733;-67
2023/11/26 23:31:53;;;;;;;9.55;5.10;;;;;;;-0.66;66.45;99618.75;30603215;28;97045;-67
2023/11/26 23:46:53;;;;;;;6.70;3.92;;;;;;;-0.52;65.96;99603.72;30600716;28;96682;-67
